createdAt,value
2023-04-21T00:01:44.192Z,101365.31
2023-04-21T00:04:15.250Z,101371.31
2023-04-21T00:06:42.639Z,101365.19
2023-04-21T00:09:11.049Z,101365.41
2023-04-21T00:11:38.302Z,101364.47
2023-04-21T00:14:05.624Z,101363.72
2023-04-21T00:16:32.990Z,101366.38
2023-04-21T00:19:00.378Z,101362.84
2023-04-21T00:21:27.626Z,101363.81
2023-04-21T00:23:55.095Z,101361.88
2023-04-21T00:26:22.276Z,101358.44
2023-04-21T00:28:49.475Z,101366.47
2023-04-21T00:31:16.983Z,101354.81
2023-04-21T00:33:44.223Z,101363.81
2023-04-21T00:36:14.176Z,101363.72
2023-04-21T00:38:41.327Z,101364.56
2023-04-21T00:41:08.513Z,101355.75
2023-04-21T00:43:35.713Z,101356.75
2023-04-21T00:46:02.906Z,101362.22
2023-04-21T00:48:30.144Z,101349.75
2023-04-21T00:50:57.367Z,101356.75
2023-04-21T00:53:24.590Z,101360.59
2023-04-21T00:55:52.158Z,101354.41
2023-04-21T00:58:19.337Z,101353.22
2023-04-21T01:00:46.546Z,101354.06
2023-04-21T01:03:13.946Z,101351.50
2023-04-21T01:05:41.434Z,101354.28
2023-04-21T01:08:08.774Z,101354.19
2023-04-21T01:10:36.032Z,101347.22
2023-04-21T01:13:03.392Z,101345.25
2023-04-21T01:15:31.297Z,101348.91
2023-04-21T01:17:58.645Z,101340.03
2023-04-21T01:20:26.600Z,101354.41
2023-04-21T01:22:53.832Z,101340.16
2023-04-21T01:25:25.719Z,101349.97
2023-04-21T01:27:52.931Z,101341.94
2023-04-21T01:30:20.149Z,101339.25
2023-04-21T01:32:47.366Z,101341.84
2023-04-21T01:35:14.602Z,101343.78
2023-04-21T01:37:41.925Z,101341.09
2023-04-21T01:40:09.577Z,101338.41
2023-04-21T01:42:42.561Z,101342.81
2023-04-21T01:45:10.571Z,101331.13
2023-04-21T01:47:37.871Z,101340.25
2023-04-21T01:50:05.561Z,101328.75
2023-04-21T01:52:32.776Z,101332.09
2023-04-21T01:55:00.853Z,101341.22
2023-04-21T01:57:28.002Z,101334.13
2023-04-21T01:59:55.616Z,101335.84
2023-04-21T02:02:25.824Z,101331.44
2023-04-21T02:04:53.056Z,101324.38
2023-04-21T02:07:23.199Z,101331.56
2023-04-21T02:09:50.598Z,101328.66
2023-04-21T02:12:17.790Z,101323.53
2023-04-21T02:14:47.305Z,101325.34
2023-04-21T02:17:14.616Z,101329.88
2023-04-21T02:19:41.824Z,101331.56
2023-04-21T02:22:10.599Z,101320.00
2023-04-21T02:24:37.773Z,101320.09
2023-04-21T02:27:05.238Z,101318.25
2023-04-21T02:29:32.552Z,101320.09
2023-04-21T02:32:05.582Z,101318.94
2023-04-21T02:34:45.314Z,101315.59
2023-04-21T02:37:12.563Z,101315.50
2023-04-21T02:39:39.971Z,101313.88
2023-04-21T02:42:07.141Z,101316.56
2023-04-21T02:44:34.346Z,101312.06
2023-04-21T02:47:01.593Z,101316.56
2023-04-21T02:49:28.788Z,101315.72
2023-04-21T02:51:56.124Z,101317.53
2023-04-21T02:54:23.306Z,101322.91
2023-04-21T02:56:50.470Z,101322.13
2023-04-21T02:59:17.992Z,101324.72
2023-04-21T03:01:46.377Z,101320.31
2023-04-21T03:04:13.674Z,101316.78
2023-04-21T03:06:41.098Z,101319.38
2023-04-21T03:09:08.993Z,101317.63
2023-04-21T03:11:36.292Z,101314.94
2023-04-21T03:14:03.437Z,101324.09
2023-04-21T03:16:30.662Z,101321.28
2023-04-21T03:18:57.927Z,101318.72
2023-04-21T03:21:25.355Z,101317.84
2023-04-21T03:23:53.843Z,101322.25
2023-04-21T03:26:21.271Z,101322.47
2023-04-21T03:28:48.508Z,101320.53
2023-04-21T03:31:15.751Z,101324.81
2023-04-21T03:33:42.961Z,101324.94
2023-04-21T03:36:11.048Z,101322.25
2023-04-21T03:38:38.397Z,101319.88
2023-04-21T03:41:05.586Z,101322.56
2023-04-21T03:43:32.780Z,101322.56
2023-04-21T03:46:03.305Z,101325.25
2023-04-21T03:48:31.921Z,101327.63
2023-04-21T03:50:59.146Z,101320.66
2023-04-21T03:53:26.341Z,101325.03
2023-04-21T03:55:53.519Z,101330.72
2023-04-21T03:58:20.818Z,101330.72
2023-04-21T04:00:48.016Z,101328.06
2023-04-21T04:03:15.520Z,101328.16
2023-04-21T04:05:42.813Z,101327.06
2023-04-21T04:08:09.991Z,101321.94
2023-04-21T04:10:37.157Z,101332.44
2023-04-21T04:13:04.385Z,101335.97
2023-04-21T04:15:31.969Z,101329.97
2023-04-21T04:18:00.681Z,101332.78
2023-04-21T04:20:28.109Z,101333.09
2023-04-21T04:22:55.430Z,101327.50
2023-04-21T04:25:25.813Z,101339.94
2023-04-21T04:27:53.669Z,101335.34
2023-04-21T04:30:21.413Z,101331.88
2023-04-21T04:32:48.704Z,101336.31
2023-04-21T04:35:16.501Z,101329.34
2023-04-21T04:37:43.679Z,101331.03
2023-04-21T04:40:12.213Z,101334.56
2023-04-21T04:42:40.181Z,101338.22
2023-04-21T04:45:08.415Z,101337.16
2023-04-21T04:47:38.732Z,101325.25
2023-04-21T04:50:06.665Z,101335.03
2023-04-21T04:52:33.871Z,101336.09
2023-04-21T04:55:01.042Z,101336.72
2023-04-21T04:57:28.243Z,101331.13
2023-04-21T04:59:58.290Z,101337.53
2023-04-21T05:02:25.831Z,101340.75
2023-04-21T05:04:53.431Z,101339.78
2023-04-21T05:07:20.879Z,101344.09
2023-04-21T05:09:48.075Z,101343.16
2023-04-21T05:12:15.350Z,101347.13
2023-04-21T05:14:42.522Z,101346.38
2023-04-21T05:17:10.080Z,101342.94
2023-04-21T05:19:37.845Z,101350.00
2023-04-21T05:22:06.537Z,101344.75
2023-04-21T05:24:34.550Z,101341.84
2023-04-21T05:27:04.042Z,101341.84
2023-04-21T05:29:31.464Z,101341.00
2023-04-21T05:31:58.731Z,101347.94
2023-04-21T05:34:25.982Z,101336.28
2023-04-21T05:36:53.205Z,101337.69
2023-04-21T05:39:20.486Z,101342.81
2023-04-21T05:41:47.741Z,101341.63
2023-04-21T05:44:18.172Z,101341.63
2023-04-21T05:46:45.727Z,101346.34
2023-04-21T05:49:13.049Z,101340.38
2023-04-21T05:51:40.216Z,101342.28
2023-04-21T05:54:07.478Z,101337.03
2023-04-21T05:56:34.631Z,101345.06
2023-04-21T05:59:02.099Z,101347.88
2023-04-21T06:01:29.342Z,101345.53
2023-04-21T06:03:56.921Z,101340.59
2023-04-21T06:06:25.825Z,101342.28
2023-04-21T06:08:53.057Z,101344.22
2023-04-21T06:11:20.515Z,101341.44
2023-04-21T06:13:48.178Z,101343.16
2023-04-21T06:16:15.678Z,101338.00
2023-04-21T06:18:42.914Z,101333.41
2023-04-21T06:21:10.545Z,101338.78
2023-04-21T06:23:37.716Z,101330.59
2023-04-21T06:26:06.870Z,101337.38
2023-04-21T06:28:35.013Z,101331.44
2023-04-21T06:31:03.064Z,101336.16
2023-04-21T06:33:30.745Z,101326.81
2023-04-21T06:35:58.190Z,101327.84
2023-04-21T06:38:25.616Z,101322.59
2023-04-21T06:40:52.945Z,101322.13
2023-04-21T06:43:20.119Z,101325.88
2023-04-21T06:45:47.276Z,101325.53
2023-04-21T06:48:14.482Z,101322.41
2023-04-21T06:50:44.259Z,101323.88
2023-04-21T06:53:11.983Z,101324.53
2023-04-21T06:55:39.310Z,101318.03
2023-04-21T06:58:06.507Z,101318.66
2023-04-21T07:00:33.777Z,101318.44
2023-04-21T07:03:01.041Z,101315.66
2023-04-21T07:05:28.583Z,101316.50
2023-04-21T07:07:59.762Z,101320.03
2023-04-21T07:10:27.744Z,101319.81
2023-04-21T07:12:55.371Z,101322.41
2023-04-21T07:15:22.701Z,101325.81
2023-04-21T07:17:50.065Z,101310.56
2023-04-21T07:20:18.925Z,101317.53
2023-04-21T07:22:46.207Z,101315.59
2023-04-21T07:25:13.435Z,101320.34
2023-04-21T07:27:40.819Z,101318.59
2023-04-21T07:30:08.701Z,101311.75
2023-04-21T07:32:37.382Z,101321.25
2023-04-21T07:35:05.864Z,101318.63
2023-04-21T07:37:33.107Z,101319.38
2023-04-21T07:40:00.257Z,101316.72
2023-04-21T07:42:27.657Z,101310.81
2023-04-21T07:44:56.065Z,101303.97
2023-04-21T07:47:23.562Z,101317.78
2023-04-21T07:49:51.076Z,101307.38
2023-04-21T07:52:18.330Z,101311.03
2023-04-21T07:54:45.724Z,101306.31
2023-04-21T07:57:12.979Z,101302.63
2023-04-21T07:59:40.209Z,101304.69
2023-04-21T08:02:07.713Z,101306.53
2023-04-21T08:04:35.202Z,101305.44
2023-04-21T08:07:03.010Z,101305.91
2023-04-21T08:09:30.340Z,101304.66
2023-04-21T08:11:58.060Z,101301.78
2023-04-21T08:14:26.876Z,101304.31
2023-04-21T08:16:56.558Z,101301.56
2023-04-21T08:19:24.384Z,101301.81
2023-04-21T08:21:51.618Z,101307.69
2023-04-21T08:24:19.086Z,101303.69
2023-04-21T08:26:46.536Z,101305.41
2023-04-21T08:29:14.109Z,101300.06
2023-04-21T08:31:41.410Z,101297.69
2023-04-21T08:34:08.977Z,101296.56
2023-04-21T08:36:36.178Z,101288.53
2023-04-21T08:39:04.092Z,101292.34
2023-04-21T08:41:31.307Z,101294.72
2023-04-21T08:43:58.745Z,101296.81
2023-04-21T08:46:27.926Z,101286.28
2023-04-21T08:48:55.661Z,101286.59
2023-04-21T08:51:24.673Z,101284.06
2023-04-21T08:53:52.368Z,101285.69
2023-04-21T08:56:19.745Z,101282.16
2023-04-21T08:58:47.206Z,101282.91
2023-04-21T09:01:14.516Z,101278.09
2023-04-21T09:03:42.000Z,101270.28
2023-04-21T09:06:10.221Z,101282.16
2023-04-21T09:08:39.958Z,101273.56
2023-04-21T09:11:07.326Z,101281.63
2023-04-21T09:13:36.452Z,101280.94
2023-04-21T09:16:08.448Z,101280.56
2023-04-21T09:18:40.366Z,101279.03
2023-04-21T09:21:18.778Z,101276.19
2023-04-21T09:23:49.117Z,101273.13
2023-04-21T09:26:18.465Z,101274.13
2023-04-21T09:28:47.588Z,101271.66
2023-04-21T09:31:24.752Z,101271.56
2023-04-21T09:34:01.523Z,101268.97
2023-04-21T09:36:30.708Z,101269.22
2023-04-21T09:41:33.583Z,101268.69
2023-04-21T09:44:04.668Z,101265.00
2023-04-21T09:46:36.727Z,101265.66
2023-04-21T09:49:05.329Z,101262.84
2023-04-21T09:56:54.385Z,101261.84
2023-04-21T09:59:27.738Z,101257.78
2023-04-21T10:01:56.575Z,101252.56
2023-04-21T10:04:26.304Z,101255.25
2023-04-21T10:06:54.063Z,101251.25
2023-04-21T10:09:24.142Z,101249.56
2023-04-21T10:11:53.067Z,101253.19
2023-04-21T10:14:22.407Z,101250.25
2023-04-21T10:17:10.080Z,101250.03
2023-04-21T10:19:40.227Z,101239.41
2023-04-21T10:22:11.210Z,101241.84
2023-04-21T10:24:40.251Z,101250.66
2023-04-21T10:27:11.556Z,101228.56
2023-04-21T10:29:52.390Z,101238.94
2023-04-21T10:32:42.485Z,101236.38
2023-04-21T10:35:14.420Z,101237.09
2023-04-21T10:37:42.631Z,101230.88
2023-04-21T10:40:43.858Z,101214.31
2023-04-21T10:43:45.889Z,101218.13
2023-04-21T10:46:41.194Z,101215.78
2023-04-21T10:49:10.696Z,101207.34
2023-04-21T10:52:03.019Z,101200.75
2023-04-21T10:54:46.808Z,101204.56
2023-04-21T10:57:18.521Z,101199.91
2023-04-21T10:59:46.953Z,101192.25
2023-04-21T11:02:16.025Z,101197.97
2023-04-21T11:04:49.817Z,101193.38
2023-04-21T11:07:22.920Z,101186.53
2023-04-21T11:09:57.505Z,101191.44
2023-04-21T11:12:30.047Z,101187.66
2023-04-21T11:14:57.434Z,101177.28
2023-04-21T11:17:25.313Z,101187.03
2023-04-21T11:19:56.579Z,101173.41
2023-04-21T11:22:25.687Z,101176.41
2023-04-21T11:24:56.124Z,101174.72
2023-04-21T11:27:26.129Z,101173.84
2023-04-21T11:29:53.335Z,101173.25
2023-04-21T11:32:21.113Z,101163.63
2023-04-21T11:34:48.612Z,101169.72
2023-04-21T11:37:27.025Z,101190.69
2023-04-21T11:40:01.452Z,101156.44
2023-04-21T11:42:29.319Z,101177.69
2023-04-21T11:44:57.248Z,101154.25
2023-04-21T11:47:26.327Z,101155.09
2023-04-21T11:49:58.791Z,101152.28
2023-04-21T11:52:34.353Z,101146.91
2023-04-21T11:55:06.721Z,101151.44
2023-04-21T11:57:34.523Z,101144.09
2023-04-21T12:00:11.730Z,101143.13
2023-04-21T12:02:39.389Z,101154.19
2023-04-21T12:05:13.483Z,101147.63
2023-04-21T12:07:53.678Z,101135.19
2023-04-21T12:10:21.488Z,101137.88
2023-04-21T12:12:48.954Z,101136.63
2023-04-21T12:15:23.189Z,101137.72
2023-04-21T12:17:52.621Z,101126.28
2023-04-21T12:20:22.318Z,101140.41
2023-04-21T12:22:49.996Z,101134.09
2023-04-21T12:25:17.403Z,101132.88
2023-04-21T12:27:57.671Z,101135.41
2023-04-21T12:30:24.982Z,101125.66
2023-04-21T12:32:54.220Z,101123.84
2023-04-21T12:35:22.215Z,101127.25
2023-04-21T12:37:49.369Z,101105.66
2023-04-21T12:40:16.671Z,101121.75
2023-04-21T12:42:43.866Z,101118.13
2023-04-21T12:45:11.592Z,101130.41
2023-04-21T12:47:39.312Z,101124.09
2023-04-21T12:50:07.116Z,101112.75
2023-04-21T12:52:34.319Z,101114.31
2023-04-21T12:55:01.885Z,101109.19
2023-04-21T12:57:29.729Z,101110.41
2023-04-21T12:59:57.004Z,101110.31
2023-04-21T13:02:24.288Z,101109.19
2023-04-21T13:04:52.038Z,101110.91
2023-04-21T13:07:21.739Z,101100.19
2023-04-21T13:09:49.016Z,101089.44
2023-04-21T13:12:16.941Z,101098.19
2023-04-21T13:14:44.195Z,101099.31
2023-04-21T13:17:11.814Z,101093.69
2023-04-21T13:19:39.049Z,101091.13
2023-04-21T13:22:06.259Z,101090.16
2023-04-21T13:24:33.698Z,101088.59
2023-04-21T13:27:01.952Z,101082.47
2023-04-21T13:29:30.363Z,101079.19
2023-04-21T13:31:57.908Z,101075.75
2023-04-21T13:34:25.267Z,101079.19
2023-04-21T13:36:52.505Z,101071.13
2023-04-21T13:39:19.769Z,101062.34
2023-04-21T13:41:47.013Z,101058.56
2023-04-21T13:44:14.312Z,101070.41
2023-04-21T13:46:42.645Z,101059.66
2023-04-21T13:49:10.638Z,101051.75
2023-04-21T13:51:37.879Z,101054.28
2023-04-21T13:54:05.354Z,101055.03
2023-04-21T13:56:32.690Z,101048.69
2023-04-21T13:59:00.204Z,101041.88
2023-04-21T14:01:27.490Z,101034.91
2023-04-21T14:03:54.917Z,101035.50
2023-04-21T14:06:22.466Z,101024.78
2023-04-21T14:08:49.736Z,101016.63
2023-04-21T14:11:17.274Z,101028.06
2023-04-21T14:14:00.884Z,101026.38
2023-04-21T14:16:32.334Z,101019.31
2023-04-21T14:18:59.712Z,101009.53
2023-04-21T14:21:26.926Z,101010.50
2023-04-21T14:23:54.067Z,101007.44
2023-04-21T14:26:21.537Z,101012.22
2023-04-21T14:28:51.933Z,101000.38
2023-04-21T14:31:21.812Z,101002.97
2023-04-21T14:33:49.736Z,100992.91
2023-04-21T14:36:16.952Z,100996.56
2023-04-21T14:38:44.224Z,100998.50
2023-04-21T14:41:11.693Z,100988.34
2023-04-21T14:43:39.409Z,100978.25
2023-04-21T14:46:06.756Z,100970.72
2023-04-21T14:48:34.211Z,100974.50
2023-04-21T14:51:01.442Z,100977.06
2023-04-21T14:53:28.761Z,100974.84
2023-04-21T14:55:56.151Z,100970.56
2023-04-21T14:58:23.511Z,100970.56
2023-04-21T15:00:51.128Z,100963.69
2023-04-21T15:03:18.515Z,100962.59
2023-04-21T15:05:46.054Z,100956.75
2023-04-21T15:08:18.002Z,100959.75
2023-04-21T15:10:45.905Z,100957.06
2023-04-21T15:13:13.406Z,100951.72
2023-04-21T15:15:41.315Z,100939.97
2023-04-21T15:18:08.661Z,100946.59
2023-04-21T15:20:44.424Z,100946.84
2023-04-21T15:23:13.275Z,100938.53
2023-04-21T15:25:40.719Z,100941.97
2023-04-21T15:28:08.681Z,100938.53
2023-04-21T15:30:36.175Z,100938.53
2023-04-21T15:33:03.515Z,100935.13
2023-04-21T15:35:31.039Z,100928.91
2023-04-21T15:37:58.222Z,100926.22
2023-04-21T15:40:25.635Z,100929.75
2023-04-21T15:42:52.953Z,100933.31
2023-04-21T15:45:20.263Z,100926.22
2023-04-21T15:47:47.470Z,100928.91
2023-04-21T15:50:14.849Z,100923.66
2023-04-21T15:52:43.589Z,100924.66
2023-04-21T15:55:13.976Z,100930.75
2023-04-21T15:57:41.202Z,100924.53
2023-04-21T16:00:12.749Z,100923.78
2023-04-21T16:02:40.467Z,100921.97
2023-04-21T16:05:09.108Z,100918.31
2023-04-21T16:07:36.496Z,100918.16
2023-04-21T16:10:04.189Z,100910.09
2023-04-21T16:12:31.462Z,100909.25
2023-04-21T16:15:09.283Z,100902.81
2023-04-21T16:17:46.321Z,100907.34
2023-04-21T16:20:13.879Z,100904.78
2023-04-21T16:22:41.154Z,100898.84
2023-04-21T16:25:10.688Z,100897.59
2023-04-21T16:27:38.215Z,100894.38
2023-04-21T16:30:08.120Z,100888.88
2023-04-21T16:32:36.004Z,100888.09
2023-04-21T16:35:10.007Z,100889.69
2023-04-21T16:37:40.126Z,100892.69
2023-04-21T16:40:08.984Z,100887.53
2023-04-21T16:42:36.565Z,100891.66
2023-04-21T16:45:04.775Z,100885.03
2023-04-21T16:47:41.303Z,100883.06
2023-04-21T16:50:12.203Z,100879.13
2023-04-21T16:52:39.472Z,100872.75
2023-04-21T16:55:07.484Z,100878.00
2023-04-21T16:57:34.917Z,100876.91
2023-04-21T17:00:05.642Z,100875.75
2023-04-21T17:02:34.050Z,100870.28
2023-04-21T17:05:01.459Z,100875.50
2023-04-21T17:07:28.889Z,100868.44
2023-04-21T17:09:56.126Z,100868.44
2023-04-21T17:12:23.591Z,100874.53
2023-04-21T17:14:50.842Z,100873.53
2023-04-21T17:17:18.495Z,100879.63
2023-04-21T17:19:45.824Z,100875.09
2023-04-21T17:22:13.184Z,100870.47
2023-04-21T17:24:52.338Z,100874.97
2023-04-21T17:27:21.580Z,100874.84
2023-04-21T17:29:49.119Z,100872.28
2023-04-21T17:32:16.556Z,100876.53
2023-04-21T17:34:44.096Z,100880.22
2023-04-21T17:37:11.304Z,100877.38
2023-04-21T17:39:38.746Z,100880.06
2023-04-21T17:42:06.557Z,100878.22
2023-04-21T17:44:33.842Z,100879.97
2023-04-21T17:47:02.091Z,100877.25
2023-04-21T17:49:29.319Z,100872.72
2023-04-21T17:51:56.834Z,100877.13
2023-04-21T17:54:25.121Z,100878.72
2023-04-21T17:56:52.291Z,100875.19
2023-04-21T17:59:19.807Z,100878.72
2023-04-21T18:01:47.279Z,100880.56
2023-04-21T18:04:16.565Z,100876.03
2023-04-21T18:06:44.349Z,100880.56
2023-04-21T18:09:11.821Z,100878.59
2023-04-21T18:11:39.221Z,100882.91
2023-04-21T18:14:07.082Z,100877.25
2023-04-21T18:16:34.436Z,100887.09
2023-04-21T18:19:01.822Z,100882.72
2023-04-21T18:21:29.126Z,100884.28
2023-04-21T18:23:59.088Z,100883.66
2023-04-21T18:26:26.905Z,100878.94
2023-04-21T18:28:58.371Z,100882.03
2023-04-21T18:31:26.407Z,100878.00
2023-04-21T18:33:53.749Z,100880.09
2023-04-21T18:36:21.122Z,100881.31
2023-04-21T18:38:48.337Z,100881.47
2023-04-21T18:41:16.059Z,100887.91
2023-04-21T18:43:43.541Z,100882.81
2023-04-21T18:46:11.263Z,100880.25
2023-04-21T18:48:38.452Z,100882.22
2023-04-21T18:51:05.940Z,100881.72
2023-04-21T18:53:33.572Z,100882.38
2023-04-21T18:56:00.787Z,100884.69
2023-04-21T18:58:28.052Z,100878.34
2023-04-21T19:00:56.042Z,100882.16
2023-04-21T19:03:25.206Z,100868.75
2023-04-21T19:05:52.539Z,100876.66
2023-04-21T19:08:30.098Z,100878.75
2023-04-21T19:11:05.844Z,100879.97
2023-04-21T19:13:33.101Z,100882.25
2023-04-21T19:16:01.285Z,100885.34
2023-04-21T19:18:29.078Z,100878.38
2023-04-21T19:20:59.292Z,100878.13
2023-04-21T19:23:26.634Z,100878.75
2023-04-21T19:25:56.101Z,100876.19
2023-04-21T19:28:23.525Z,100876.91
2023-04-21T19:30:50.724Z,100877.75
2023-04-21T19:33:17.945Z,100874.75
2023-04-21T19:35:45.628Z,100883.50
2023-04-21T19:38:12.928Z,100873.88
2023-04-21T19:40:42.178Z,100870.09
2023-04-21T19:43:09.408Z,100874.38
2023-04-21T19:45:37.612Z,100874.00
2023-04-21T19:48:06.963Z,100874.00
2023-04-21T19:50:35.776Z,100875.31
2023-04-21T19:53:03.581Z,100872.72
2023-04-21T19:55:30.965Z,100876.34
2023-04-21T19:57:58.202Z,100872.31
2023-04-21T20:00:26.054Z,100878.44
2023-04-21T20:02:53.564Z,100877.44
2023-04-21T20:05:21.291Z,100885.38
2023-04-21T20:07:48.910Z,100880.84
2023-04-21T20:10:17.395Z,100880.84
2023-04-21T20:12:45.085Z,100879.88
2023-04-21T20:15:13.115Z,100883.41
2023-04-21T20:17:41.760Z,100876.34
2023-04-21T20:20:09.675Z,100882.56
2023-04-21T20:22:37.001Z,100885.25
2023-04-21T20:25:04.867Z,100882.56
2023-04-21T20:27:32.398Z,100883.41
2023-04-21T20:29:59.649Z,100882.56
2023-04-21T20:32:26.911Z,100893.28
2023-04-21T20:34:54.191Z,100888.50
2023-04-21T20:37:23.016Z,100891.34
2023-04-21T20:39:50.346Z,100889.63
2023-04-21T20:42:19.174Z,100886.81
2023-04-21T20:44:47.227Z,100888.50
2023-04-21T20:47:14.640Z,100885.97
2023-04-21T20:49:43.636Z,100884.00
2023-04-21T20:52:11.126Z,100889.25
2023-04-21T20:54:38.702Z,100895.59
2023-04-21T20:57:07.459Z,100894.72
2023-04-21T20:59:35.092Z,100899.13
2023-04-21T21:02:02.837Z,100894.03
2023-04-21T21:04:30.236Z,100891.09
2023-04-21T21:06:57.499Z,100897.06
2023-04-21T21:09:25.320Z,100896.06
2023-04-21T21:11:52.574Z,100894.22
2023-04-21T21:14:20.241Z,100894.22
2023-04-21T21:16:47.504Z,100894.22
2023-04-21T21:19:14.758Z,100895.94
2023-04-21T21:21:42.038Z,100901.19
2023-04-21T21:24:09.361Z,100900.19
2023-04-21T21:26:36.583Z,100896.66
2023-04-21T21:29:04.776Z,100903.75
2023-04-21T21:31:32.325Z,100906.44
2023-04-21T21:34:01.115Z,100909.97
2023-04-21T21:36:28.289Z,100903.75
2023-04-21T21:38:55.461Z,100903.00
2023-04-21T21:41:23.172Z,100902.16
2023-04-21T21:43:50.843Z,100905.56
2023-04-21T21:46:18.776Z,100909.13
2023-04-21T21:48:46.448Z,100903.75
2023-04-21T21:51:13.788Z,100904.72
2023-04-21T21:53:41.009Z,100906.44
2023-04-21T21:56:08.194Z,100910.91
2023-04-21T21:58:35.522Z,100907.38
2023-04-21T22:01:02.735Z,100906.44
2023-04-21T22:03:30.462Z,100906.53
2023-04-21T22:05:57.886Z,100901.06
2023-04-21T22:08:25.938Z,100906.44
2023-04-21T22:10:53.169Z,100905.44
2023-04-21T22:13:20.492Z,100908.13
2023-04-21T22:15:47.712Z,100913.59
2023-04-21T22:18:14.918Z,100914.47
2023-04-21T22:20:42.073Z,100923.38
2023-04-21T22:23:09.298Z,100915.44
2023-04-21T22:25:36.979Z,100915.44
2023-04-21T22:28:04.342Z,100919.13
2023-04-21T22:30:31.528Z,100916.44
2023-04-21T22:32:58.826Z,100918.97
2023-04-21T22:35:26.017Z,100908.13
2023-04-21T22:37:53.224Z,100914.59
2023-04-21T22:40:20.528Z,100920.81
2023-04-21T22:42:47.742Z,100913.50
2023-04-21T22:45:14.950Z,100917.75
2023-04-21T22:47:42.316Z,100923.97
2023-04-21T22:50:10.242Z,100919.72
2023-04-21T22:52:37.554Z,100925.81
2023-04-21T22:55:05.371Z,100926.78
2023-04-21T22:57:32.874Z,100919.59
2023-04-21T23:00:00.394Z,100921.41
2023-04-21T23:02:27.705Z,100928.63
2023-04-21T23:04:55.017Z,100927.66
2023-04-21T23:07:22.223Z,100927.66
2023-04-21T23:09:49.441Z,100923.97
2023-04-21T23:12:16.680Z,100934.72
2023-04-21T23:14:44.325Z,100924.09
2023-04-21T23:17:11.465Z,100925.22
2023-04-21T23:19:39.337Z,100923.50
2023-04-21T23:22:06.891Z,100925.09
2023-04-21T23:24:34.333Z,100930.44
2023-04-21T23:27:02.105Z,100922.66
2023-04-21T23:29:29.330Z,100926.19
2023-04-21T23:31:56.605Z,100920.81
2023-04-21T23:34:23.905Z,100925.34
2023-04-21T23:36:51.118Z,100923.63
2023-04-21T23:39:21.401Z,100917.41
2023-04-21T23:41:48.847Z,100917.41
2023-04-21T23:44:16.158Z,100922.78
2023-04-21T23:46:43.340Z,100920.09
2023-04-21T23:49:11.526Z,100917.41
2023-04-21T23:51:38.748Z,100918.38
2023-04-21T23:54:06.077Z,100920.22
2023-04-21T23:56:33.370Z,100913.00
2023-04-21T23:59:00.822Z,100907.66
